Time;durP1;ratioP1;P1;durP2;ratioP2;P2;SDS_P1;SDS_P2;PMS_P1;PMS_P2;Temp;Humidity;BMP_temperature;BMP_pressure;BME280_temperature;BME280_humidity;BME280_pressure;Samples;Min_cycle;Max_cycle;Signal;HPM_P1;HPM_P2
2022/11/01 00:00:21;;;;;;;15.82;11.43;;;12.90;99.90;;;;;;4914405;29;20050;-83
2022/11/01 00:02:46;;;;;;;14.43;9.85;;;12.90;99.90;;;;;;4895682;29;20043;-83
2022/11/01 00:05:12;;;;;;;25.55;10.90;;;12.90;99.90;;;;;;4895625;29;20040;-82
2022/11/01 00:07:37;;;;;;;14.93;9.90;;;13.00;99.90;;;;;;4907571;29;20045;-84
2022/11/01 00:10:03;;;;;;;17.65;10.13;;;12.90;99.90;;;;;;4897987;29;20031;-82
2022/11/01 00:12:30;;;;;;;15.88;10.27;;;12.90;99.90;;;;;;4897026;29;20110;-83
2022/11/01 00:14:55;;;;;;;15.40;10.25;;;12.90;99.90;;;;;;4893648;29;20040;-82
2022/11/01 00:17:21;;;;;;;17.25;9.95;;;12.90;99.90;;;;;;4896368;29;20056;-83
2022/11/01 00:19:46;;;;;;;16.05;9.98;;;12.90;99.90;;;;;;4888714;29;20037;-83
2022/11/01 00:22:12;;;;;;;16.55;10.43;;;12.90;99.90;;;;;;4891978;29;20095;-82
2022/11/01 00:24:37;;;;;;;15.98;9.45;;;12.90;99.90;;;;;;4912282;29;20388;-83
2022/11/01 00:27:03;;;;;;;14.32;9.80;;;13.00;99.90;;;;;;4897511;29;20530;-83
2022/11/01 00:29:28;;;;;;;13.15;8.75;;;13.00;99.90;;;;;;4894394;29;20039;-83
2022/11/01 00:31:54;;;;;;;17.75;10.13;;;13.00;99.90;;;;;;4899288;29;20054;-84
2022/11/01 00:34:20;;;;;;;17.45;9.82;;;13.00;99.90;;;;;;4899728;29;20070;-83
2022/11/01 00:36:45;;;;;;;17.27;9.52;;;13.00;99.90;;;;;;4911869;29;20035;-83
2022/11/01 00:39:15;;;;;;;18.80;10.65;;;13.00;99.90;;;;;;4913384;29;20452;-83
2022/11/01 00:41:41;;;;;;;14.43;10.00;;;13.00;99.90;;;;;;4912902;29;20036;-84
2022/11/01 00:44:06;;;;;;;14.02;10.60;;;13.00;99.90;;;;;;4910643;29;20040;-83
2022/11/01 00:46:32;;;;;;;15.82;9.73;;;13.00;99.90;;;;;;4898581;29;20067;-83
2022/11/01 00:48:58;;;;;;;14.80;9.23;;;13.00;99.90;;;;;;4896244;29;20091;-83
2022/11/01 00:51:24;;;;;;;13.63;9.60;;;13.30;99.90;;;;;;4909536;29;20443;-83
2022/11/01 00:53:50;;;;;;;14.07;8.93;;;13.00;99.90;;;;;;4897804;29;20056;-83
2022/11/01 00:56:15;;;;;;;14.70;8.75;;;13.00;99.90;;;;;;4895426;29;20067;-84
2022/11/01 00:58:41;;;;;;;15.75;8.75;;;13.00;99.90;;;;;;4897883;29;20418;-83
2022/11/01 01:01:06;;;;;;;12.20;8.88;;;13.00;99.90;;;;;;4902047;29;20127;-83
2022/11/01 01:03:32;;;;;;;15.88;8.57;;;13.10;99.90;;;;;;4898679;29;20051;-83
2022/11/01 01:05:57;;;;;;;16.48;8.07;;;13.10;99.90;;;;;;4896943;29;20505;-83
2022/11/01 01:08:25;;;;;;;14.18;7.85;;;13.00;99.90;;;;;;4920034;29;20067;-83
2022/11/01 01:10:52;;;;;;;17.05;8.98;;;13.10;99.90;;;;;;4898010;29;20032;-82
2022/11/01 01:13:18;;;;;;;14.60;9.00;;;13.10;99.90;;;;;;4910338;29;20050;-83
2022/11/01 01:15:44;;;;;;;14.70;7.55;;;13.10;99.90;;;;;;4889617;29;20111;-84
2022/11/01 01:18:10;;;;;;;13.45;7.78;;;13.20;99.90;;;;;;4907180;29;20171;-83
2022/11/01 01:20:36;;;;;;;11.63;8.52;;;13.20;99.90;;;;;;4898215;29;20375;-82
2022/11/01 01:23:02;;;;;;;9.10;6.35;;;13.20;99.90;;;;;;4898529;29;20035;-83
2022/11/01 01:25:27;;;;;;;11.65;6.63;;;13.30;99.90;;;;;;4912515;29;20110;-83
2022/11/01 01:27:54;;;;;;;14.95;5.68;;;13.30;99.90;;;;;;4898711;29;20039;-83
2022/11/01 01:30:20;;;;;;;12.02;5.43;;;13.40;99.90;;;;;;4896944;29;20059;-83
2022/11/01 01:32:45;;;;;;;10.90;5.30;;;13.50;99.90;;;;;;4902125;29;20039;-83
2022/11/01 01:35:11;;;;;;;11.77;5.30;;;13.60;99.90;;;;;;4899374;29;20050;-83
2022/11/01 01:37:37;;;;;;;15.85;5.68;;;13.70;99.90;;;;;;4916401;29;20052;-83
2022/11/01 01:40:03;;;;;;;14.98;5.75;;;13.60;99.90;;;;;;4898749;29;20032;-83
2022/11/01 01:42:41;;;;;;;9.18;5.05;;;13.70;99.90;;;;;;4909947;29;20038;-83
2022/11/01 01:45:22;;;;;;;11.77;5.13;;;13.80;99.90;;;;;;4896384;29;20067;-82
2022/11/01 01:47:51;;;;;;;11.70;5.38;;;13.80;99.90;;;;;;4907264;29;20056;-83
2022/11/01 01:50:40;;;;;;;13.95;5.15;;;13.90;99.90;;;;;;4896387;29;20040;-83
2022/11/01 01:53:18;;;;;;;15.73;5.18;;;13.90;99.90;;;;;;4908880;29;20047;-83
2022/11/01 01:55:55;;;;;;;10.77;5.25;;;14.00;99.90;;;;;;4893676;29;20387;-83
2022/11/01 01:58:31;;;;;;;9.50;5.30;;;14.00;99.90;;;;;;4916845;29;20123;-83
2022/11/01 02:00:58;;;;;;;13.60;5.53;;;14.00;99.90;;;;;;4895488;29;20052;-83
2022/11/01 02:03:28;;;;;;;15.63;5.90;;;14.00;99.90;;;;;;4914576;29;20569;-82
2022/11/01 02:06:17;;;;;;;16.30;4.95;;;14.00;99.90;;;;;;4908514;29;20040;-83
2022/11/01 02:08:54;;;;;;;10.55;5.18;;;14.00;99.90;;;;;;4915896;29;20130;-83
2022/11/01 02:11:20;;;;;;;10.45;4.90;;;14.00;99.90;;;;;;4898777;29;20051;-83
2022/11/01 02:13:46;;;;;;;10.13;4.65;;;14.00;99.90;;;;;;4915826;29;20036;-83
2022/11/01 02:16:21;;;;;;;11.20;5.60;;;14.10;99.90;;;;;;4903532;29;20506;-82
2022/11/01 02:19:03;;;;;;;;;;;14.10;99.90;;;;;;4900906;29;20122;-83
2022/11/01 02:21:29;;;;;;;8.05;5.18;;;14.10;99.90;;;;;;4901635;29;19918;-83
2022/11/01 02:24:29;;;;;;;14.35;4.85;;;14.10;99.90;;;;;;4899974;29;20380;-84
2022/11/01 02:27:06;;;;;;;11.23;5.13;;;14.10;99.90;;;;;;4897185;29;20059;-82
2022/11/01 02:29:49;;;;;;;10.77;4.57;;;14.20;99.90;;;;;;4897717;29;20072;-83
2022/11/01 02:32:54;;;;;;;12.63;5.20;;;14.20;99.90;;;;;;4914091;29;20045;-83
2022/11/01 02:35:40;;;;;;;11.88;4.97;;;14.20;99.90;;;;;;4899021;29;20512;-82
2022/11/01 02:38:28;;;;;;;7.50;4.18;;;14.20;99.90;;;;;;4911752;29;20075;-83
2022/11/01 02:41:12;;;;;;;15.88;4.85;;;14.20;99.90;;;;;;4910329;29;20126;-83
2022/11/01 02:43:49;;;;;;;12.52;5.13;;;14.30;99.90;;;;;;4897788;29;20036;-83
2022/11/01 02:49:04;;;;;;;10.88;4.43;;;14.30;99.90;;;;;;4911028;29;20659;-84
2022/11/01 02:51:31;;;;;;;12.10;4.60;;;14.30;99.90;;;;;;4906603;29;20055;-83
2022/11/01 02:54:00;;;;;;;11.48;4.68;;;14.40;99.90;;;;;;4912398;29;20391;-83
2022/11/01 02:56:26;;;;;;;11.88;4.43;;;14.40;99.90;;;;;;4896778;29;20031;-83
2022/11/01 02:58:53;;;;;;;8.57;4.32;;;14.40;99.90;;;;;;4898547;29;20053;-84
2022/11/01 03:01:23;;;;;;;9.68;5.10;;;14.50;99.90;;;;;;4910453;29;20112;-83
2022/11/01 03:03:52;;;;;;;10.27;4.43;;;14.50;99.90;;;;;;4907545;29;20102;-82
2022/11/01 03:06:22;;;;;;;9.07;4.10;;;14.60;99.90;;;;;;4911326;29;20126;-83
2022/11/01 03:08:56;;;;;;;13.88;5.32;;;14.60;99.90;;;;;;4900105;29;20047;-83
2022/11/01 03:11:25;;;;;;;11.00;4.65;;;14.70;99.90;;;;;;4913169;29;20118;-83
2022/11/01 03:14:06;;;;;;;12.55;5.00;;;14.70;99.90;;;;;;4913389;29;20126;-83
2022/11/01 03:16:52;;;;;;;10.77;4.20;;;14.80;99.90;;;;;;4894419;29;20055;-83
2022/11/01 03:19:43;;;;;;;9.60;4.87;;;14.90;99.90;;;;;;4913969;29;20059;-83
2022/11/01 03:22:13;;;;;;;12.10;4.55;;;14.90;99.90;;;;;;4899067;29;20040;-83
2022/11/01 03:24:51;;;;;;;10.38;4.53;;;15.00;99.90;;;;;;4913969;29;20050;-84
2022/11/01 03:27:23;;;;;;;13.93;4.15;;;15.00;99.90;;;;;;4901491;29;20035;-82
2022/11/01 03:29:57;;;;;;;16.20;4.35;;;15.20;99.90;;;;;;4918993;29;20419;-82
2022/11/01 03:32:27;;;;;;;7.07;3.55;;;15.10;99.90;;;;;;4916943;29;20126;-82
2022/11/01 03:34:52;;;;;;;10.35;3.72;;;15.20;99.90;;;;;;4900432;29;20126;-82
2022/11/01 03:37:19;;;;;;;9.35;3.88;;;15.20;99.90;;;;;;4897584;29;20170;-82
2022/11/01 03:39:50;;;;;;;11.07;3.55;;;15.20;99.90;;;;;;4930294;29;20438;-83
2022/11/01 03:42:23;;;;;;;11.32;4.03;;;15.20;99.90;;;;;;4901974;29;20146;-83
2022/11/01 03:44:57;;;;;;;13.57;5.10;;;15.20;99.90;;;;;;4900951;29;20051;-82
2022/11/01 03:47:23;;;;;;;7.78;4.38;;;15.20;99.90;;;;;;4916248;29;20043;-82
2022/11/01 03:50:16;;;;;;;14.07;4.20;;;15.20;99.90;;;;;;4892605;29;20107;-83
2022/11/01 03:52:42;;;;;;;11.65;4.25;;;15.20;99.90;;;;;;4902080;29;20079;-84
2022/11/01 03:55:17;;;;;;;11.13;4.30;;;15.20;99.90;;;;;;4892408;29;20126;-84
2022/11/01 03:57:53;;;;;;;6.68;3.60;;;15.20;99.90;;;;;;4901016;29;20130;-84
2022/11/01 04:00:22;;;;;;;7.65;3.42;;;15.20;99.90;;;;;;4906363;29;20052;-83
2022/11/01 04:02:48;;;;;;;12.55;4.35;;;15.20;99.90;;;;;;4913225;29;20134;-82
2022/11/01 04:05:14;;;;;;;6.75;3.55;;;15.20;99.90;;;;;;4895171;29;20063;-82
2022/11/01 04:07:40;;;;;;;8.88;4.38;;;15.20;99.90;;;;;;4904899;29;20095;-83
2022/11/01 04:10:06;;;;;;;8.35;3.65;;;15.30;99.90;;;;;;4917736;29;20112;-82
2022/11/01 04:12:32;;;;;;;8.18;4.13;;;15.30;99.90;;;;;;4891592;29;20387;-83
2022/11/01 04:20:31;;;;;;;8.00;4.03;;;15.40;99.90;;;;;;4907966;29;20101;-82
2022/11/01 04:22:58;;;;;;;12.13;3.78;;;15.40;99.90;;;;;;4892253;29;20418;-85
2022/11/01 04:25:24;;;;;;;11.60;3.88;;;15.40;99.90;;;;;;4908589;29;20036;-83
2022/11/01 04:27:49;;;;;;;8.18;4.18;;;15.40;99.90;;;;;;4898679;29;20043;-83
2022/11/01 04:30:15;;;;;;;10.40;3.90;;;15.40;99.90;;;;;;4908619;29;20615;-83
2022/11/01 04:32:44;;;;;;;15.02;4.18;;;15.50;99.90;;;;;;4904913;29;20308;-83
2022/11/01 04:35:11;;;;;;;12.35;3.85;;;15.50;99.90;;;;;;4894546;29;20078;-82
2022/11/01 04:37:37;;;;;;;14.35;4.13;;;15.50;99.90;;;;;;4891986;29;20047;-83
2022/11/01 04:40:07;;;;;;;6.50;3.60;;;15.50;99.90;;;;;;4895275;29;20043;-81
2022/11/01 04:42:36;;;;;;;7.68;3.33;;;15.50;99.90;;;;;;4889052;29;20043;-82
2022/11/01 04:45:07;;;;;;;10.23;3.45;;;15.50;99.90;;;;;;4900710;29;20036;-84
2022/11/01 04:47:34;;;;;;;9.88;3.55;;;15.40;99.90;;;;;;4907050;29;20044;-82
2022/11/01 04:50:00;;;;;;;5.95;3.97;;;15.60;99.90;;;;;;4892673;29;20111;-85
2022/11/01 04:52:26;;;;;;;9.00;3.53;;;15.50;99.90;;;;;;4889567;29;20063;-82
2022/11/01 04:54:51;;;;;;;7.03;3.45;;;15.50;99.90;;;;;;4907877;29;20053;-84
2022/11/01 04:57:23;;;;;;;9.75;3.55;;;15.50;99.90;;;;;;4912255;29;20126;-85
2022/11/01 05:07:16;;;;;;;7.18;3.20;;;15.50;99.90;;;;;;4930942;29;20051;-86
2022/11/01 05:09:42;;;;;;;8.63;3.30;;;15.50;99.90;;;;;;4906124;29;20041;-83
2022/11/01 05:12:08;;;;;;;8.05;3.55;;;15.50;99.90;;;;;;4911297;29;20518;-83
2022/11/01 05:14:33;;;;;;;9.40;3.40;;;15.50;99.90;;;;;;4897163;29;20518;-85
2022/11/01 05:16:59;;;;;;;11.38;4.43;;;15.50;99.90;;;;;;4898690;29;20047;-86
2022/11/01 05:19:27;;;;;;;14.05;4.00;;;15.50;99.90;;;;;;4897237;29;20083;-86
2022/11/01 05:21:52;;;;;;;8.52;3.47;;;15.50;99.90;;;;;;4919912;29;20393;-86
2022/11/01 05:24:18;;;;;;;6.28;3.00;;;15.50;99.90;;;;;;4912030;29;20068;-85
2022/11/01 05:26:43;;;;;;;9.65;3.35;;;15.50;99.90;;;;;;4896216;29;20102;-87
2022/11/01 05:29:09;;;;;;;10.35;3.70;;;15.60;99.90;;;;;;4900905;29;20751;-84
2022/11/01 05:31:36;;;;;;;11.23;3.40;;;15.50;99.90;;;;;;4900287;29;20039;-83
2022/11/01 05:34:02;;;;;;;20.67;3.63;;;15.50;99.90;;;;;;4896263;29;20044;-84
2022/11/01 05:36:28;;;;;;;9.77;3.75;;;15.50;99.90;;;;;;4896622;29;20051;-85
2022/11/01 05:38:57;;;;;;;5.20;3.30;;;15.50;99.90;;;;;;4903046;29;20058;-85
2022/11/01 05:41:23;;;;;;;14.95;3.90;;;15.60;99.90;;;;;;4922674;29;20047;-82
2022/11/01 05:43:55;;;;;;;7.93;2.63;;;15.50;99.90;;;;;;4900784;29;20040;-87
2022/11/01 05:46:20;;;;;;;18.70;2.60;;;15.60;99.90;;;;;;4897887;29;20032;-83
2022/11/01 05:52:27;;;;;;;6.75;2.38;;;15.50;99.90;;;;;;4932989;29;20031;-82
2022/11/01 05:54:53;;;;;;;5.90;2.70;;;15.40;99.90;;;;;;4899207;29;20032;-82
2022/11/01 05:57:18;;;;;;;4.80;2.00;;;15.40;99.90;;;;;;4910199;29;20092;-83
2022/11/01 05:59:44;;;;;;;6.38;2.08;;;15.30;99.90;;;;;;4899698;29;20158;-85
2022/11/01 06:02:09;;;;;;;9.63;1.92;;;15.30;99.90;;;;;;4917877;29;20207;-84
2022/11/01 06:04:35;;;;;;;26.17;2.40;;;15.20;99.90;;;;;;4916960;29;20761;-84
2022/11/01 06:07:02;;;;;;;10.05;1.50;;;15.20;99.90;;;;;;4913981;29;20459;-83
2022/11/01 06:09:27;;;;;;;18.15;1.42;;;15.10;99.90;;;;;;4918940;29;20055;-85
2022/11/01 06:11:53;;;;;;;51.72;3.70;;;15.10;99.90;;;;;;4907541;29;20039;-83
2022/11/01 06:14:18;;;;;;;16.52;1.10;;;15.10;99.90;;;;;;4902735;29;20048;-85
2022/11/01 06:16:44;;;;;;;12.70;1.55;;;15.00;99.90;;;;;;4909094;29;20043;-85
2022/11/01 06:19:16;;;;;;;4.40;0.82;;;14.90;99.90;;;;;;4911760;29;20066;-86
2022/11/01 06:21:41;;;;;;;6.47;0.57;;;14.70;99.90;;;;;;4930437;29;20108;-85
2022/11/01 06:24:15;;;;;;;3.00;0.40;;;14.70;99.90;;;;;;4921058;29;20052;-87
2022/11/01 06:26:41;;;;;;;18.98;1.00;;;14.60;99.90;;;;;;4898970;29;20040;-86
2022/11/01 06:29:07;;;;;;;9.35;0.60;;;14.50;99.90;;;;;;4916735;29;20070;-86
2022/11/01 06:31:34;;;;;;;13.23;0.75;;;14.50;99.90;;;;;;4920562;29;20122;-84
2022/11/01 06:34:20;;;;;;;3.33;0.32;;;14.40;99.90;;;;;;4933989;29;20055;-84
2022/11/01 06:36:46;;;;;;;10.32;0.93;;;14.30;99.90;;;;;;4932452;29;21014;-86
2022/11/01 06:39:11;;;;;;;2.03;0.32;;;14.20;99.90;;;;;;4916847;29;20040;-84
2022/11/01 06:41:37;;;;;;;2.17;0.30;;;14.10;99.90;;;;;;4903845;29;20127;-84
2022/11/01 06:44:02;;;;;;;5.10;0.30;;;14.10;99.90;;;;;;4896683;29;20032;-84
2022/11/01 06:46:31;;;;;;;7.07;0.95;;;14.00;99.90;;;;;;4918787;29;20064;-84
2022/11/01 06:48:57;;;;;;;6.00;0.60;;;14.00;99.90;;;;;;4915142;29;20494;-85
2022/11/01 06:51:28;;;;;;;12.73;0.95;;;14.00;99.90;;;;;;4904584;29;20036;-86
2022/11/01 06:54:00;;;;;;;15.65;1.05;;;14.00;99.90;;;;;;4929046;29;20400;-88
2022/11/01 06:56:29;;;;;;;7.90;0.60;;;13.90;99.90;;;;;;4912334;29;20138;-88
2022/11/01 06:58:55;;;;;;;7.40;0.90;;;14.50;99.90;;;;;;4929113;29;20419;-85
2022/11/01 07:01:21;;;;;;;8.10;0.60;;;14.60;99.90;;;;;;4932511;29;20040;-84
2022/11/01 07:03:50;;;;;;;11.38;0.85;;;13.90;99.90;;;;;;4910308;29;20143;-83
2022/11/01 07:06:20;;;;;;;8.50;1.52;;;13.90;99.90;;;;;;4912119;29;20539;-85
2022/11/01 07:08:46;;;;;;;11.07;1.88;;;13.80;99.90;;;;;;4902961;29;20087;-84
2022/11/01 07:11:12;;;;;;;5.40;0.98;;;13.80;99.90;;;;;;4905772;29;20440;-85
2022/11/01 07:13:37;;;;;;;13.80;1.40;;;13.80;99.90;;;;;;4897103;29;20301;-86
2022/11/01 07:16:06;;;;;;;7.93;0.85;;;13.80;99.90;;;;;;4898059;29;20692;-84
2022/11/01 07:18:33;;;;;;;25.70;2.22;;;13.80;99.90;;;;;;4912544;29;20048;-84
2022/11/01 07:21:06;;;;;;;15.23;1.17;;;13.80;99.90;;;;;;4909392;29;20066;-85
2022/11/01 07:23:32;;;;;;;14.55;1.73;;;14.10;99.90;;;;;;4899685;29;20513;-85
2022/11/01 07:25:57;;;;;;;8.25;1.35;;;13.90;99.90;;;;;;4895484;29;20039;-84
2022/11/01 07:28:23;;;;;;;7.50;0.90;;;13.90;99.90;;;;;;4895095;29;20052;-85
2022/11/01 07:30:51;;;;;;;6.72;0.65;;;14.00;99.90;;;;;;4892858;29;20123;-84
2022/11/01 07:33:17;;;;;;;10.02;1.33;;;14.10;99.90;;;;;;4893240;29;20499;-85
2022/11/01 07:35:43;;;;;;;6.35;0.68;;;14.10;99.90;;;;;;4893232;29;20082;-85
2022/11/01 07:38:09;;;;;;;5.82;1.00;;;14.10;99.90;;;;;;4909321;29;20063;-85
2022/11/01 07:40:35;;;;;;;48.72;3.33;;;14.20;99.90;;;;;;4913219;29;20120;-84
2022/11/01 07:43:02;;;;;;;28.10;2.17;;;14.20;99.90;;;;;;4911874;29;20390;-86
2022/11/01 07:45:29;;;;;;;15.57;1.40;;;14.20;99.90;;;;;;4912045;29;20086;-84
2022/11/01 07:48:01;;;;;;;17.75;1.48;;;14.20;99.90;;;;;;4911234;29;20040;-85
2022/11/01 07:50:27;;;;;;;28.50;2.25;;;14.20;99.90;;;;;;4914377;29;20074;-84
2022/11/01 07:53:00;;;;;;;20.55;2.78;;;14.20;99.90;;;;;;4912394;29;20039;-85
2022/11/01 07:55:25;;;;;;;47.25;4.13;;;14.30;99.90;;;;;;4893187;29;20055;-83
2022/11/01 07:57:52;;;;;;;42.08;3.40;;;14.40;99.90;;;;;;4896714;29;20035;-85
2022/11/01 08:00:18;;;;;;;87.95;5.25;;;14.40;99.90;;;;;;4895603;29;20123;-85
2022/11/01 08:02:43;;;;;;;17.73;1.08;;;14.40;99.90;;;;;;4908204;29;20075;-85
2022/11/01 08:05:11;;;;;;;11.38;1.27;;;14.40;99.90;;;;;;4892941;29;20039;-83
2022/11/01 08:07:40;;;;;;;24.50;1.42;;;14.40;99.90;;;;;;4896226;29;20052;-84
2022/11/01 08:10:08;;;;;;;15.05;1.25;;;14.40;99.90;;;;;;4911159;29;20044;-84
2022/11/01 08:12:34;;;;;;;21.15;2.70;;;14.40;99.90;;;;;;4898145;29;20039;-84
2022/11/01 08:15:01;;;;;;;23.88;2.08;;;14.40;99.90;;;;;;4892434;29;20040;-83
2022/11/01 08:17:29;;;;;;;7.47;1.25;;;14.40;99.90;;;;;;4907380;29;20028;-84
2022/11/01 08:19:55;;;;;;;14.52;1.75;;;14.00;99.90;;;;;;4903138;29;20066;-84
2022/11/01 08:22:20;;;;;;;61.40;4.53;;;14.40;99.90;;;;;;4907050;29;20032;-83
2022/11/01 08:24:46;;;;;;;43.83;4.70;;;14.40;99.90;;;;;;4893783;29;20143;-84
2022/11/01 08:27:12;;;;;;;12.65;2.03;;;14.50;99.90;;;;;;4895277;29;20040;-84
2022/11/01 08:29:37;;;;;;;44.22;3.90;;;14.50;99.90;;;;;;4884143;29;20098;-83
2022/11/01 08:32:03;;;;;;;51.92;4.47;;;14.50;99.90;;;;;;4897831;29;20048;-84
2022/11/01 08:34:29;;;;;;;18.92;3.08;;;14.50;99.90;;;;;;4912855;29;20496;-85
2022/11/01 08:36:58;;;;;;;31.00;3.60;;;14.50;99.90;;;;;;4905330;29;20045;-84
2022/11/01 08:39:24;;;;;;;48.28;3.92;;;14.60;99.90;;;;;;4907313;29;20044;-84
2022/11/01 08:41:50;;;;;;;25.77;4.63;;;14.50;99.90;;;;;;4909845;29;20050;-85
2022/11/01 08:44:17;;;;;;;26.75;3.60;;;14.50;99.90;;;;;;4900042;29;20051;-83
2022/11/01 08:46:43;;;;;;;118.05;8.40;;;14.40;99.90;;;;;;4899312;29;20718;-84
2022/11/01 08:49:12;;;;;;;36.85;4.82;;;14.50;99.90;;;;;;4894703;29;20131;-84
2022/11/01 08:51:38;;;;;;;10.68;2.03;;;14.50;99.90;;;;;;4911100;29;20494;-84
2022/11/01 08:54:06;;;;;;;23.08;2.72;;;14.60;99.90;;;;;;4904104;29;20051;-85
2022/11/01 08:56:32;;;;;;;16.80;2.67;;;14.60;99.90;;;;;;4903673;29;20080;-83
2022/11/01 08:59:01;;;;;;;27.55;3.40;;;14.60;99.90;;;;;;4891209;29;20462;-86
2022/11/01 09:01:29;;;;;;;20.65;4.15;;;14.60;99.90;;;;;;4889403;29;20550;-85
2022/11/01 09:03:56;;;;;;;33.83;2.85;;;14.70;99.90;;;;;;4898274;29;20035;-84
2022/11/01 09:06:26;;;;;;;23.38;2.80;;;14.70;99.90;;;;;;4894840;29;20048;-84
2022/11/01 09:08:52;;;;;;;24.23;4.65;;;14.70;99.90;;;;;;4912300;29;20079;-84
2022/11/01 09:11:18;;;;;;;13.25;2.90;;;14.70;99.90;;;;;;4894783;29;20125;-84
2022/11/01 09:13:44;;;;;;;14.98;2.17;;;14.70;99.90;;;;;;4897585;29;20079;-85
2022/11/01 09:16:10;;;;;;;40.70;3.83;;;14.70;99.90;;;;;;4908766;29;20039;-84
2022/11/01 09:18:38;;;;;;;23.00;2.70;;;14.70;99.90;;;;;;4912852;29;20107;-84
2022/11/01 09:21:03;;;;;;;29.73;4.38;;;14.70;99.90;;;;;;4900507;29;20048;-87
2022/11/01 09:23:29;;;;;;;20.13;3.50;;;14.80;99.90;;;;;;4901260;29;20043;-83
2022/11/01 09:26:06;;;;;;;19.38;3.10;;;14.80;99.90;;;;;;4895034;29;20102;-84
2022/11/01 09:28:32;;;;;;;39.50;4.28;;;14.90;99.90;;;;;;4891840;29;20044;-84
2022/11/01 09:31:06;;;;;;;11.32;2.28;;;14.90;99.90;;;;;;4915716;29;20036;-83
2022/11/01 09:33:33;;;;;;;16.77;2.20;;;14.90;99.90;;;;;;4914842;29;20047;-83
2022/11/01 09:35:58;;;;;;;26.90;3.42;;;14.90;99.90;;;;;;4888949;29;20048;-84
2022/11/01 09:38:25;;;;;;;20.92;3.20;;;15.00;99.90;;;;;;4898202;29;20114;-83
2022/11/01 09:41:11;;;;;;;14.93;2.78;;;14.90;99.90;;;;;;4914766;29;20467;-83
2022/11/01 09:43:39;;;;;;;17.55;2.60;;;15.00;99.90;;;;;;4916259;29;20039;-84
2022/11/01 09:46:06;;;;;;;22.48;2.40;;;15.00;99.90;;;;;;4901328;29;20036;-84
2022/11/01 09:48:35;;;;;;;15.95;2.63;;;15.00;99.90;;;;;;4898030;29;20047;-85
2022/11/01 09:51:06;;;;;;;24.77;4.13;;;15.00;99.90;;;;;;4913722;29;20051;-83
2022/11/01 09:53:32;;;;;;;21.10;2.78;;;15.00;99.90;;;;;;4900750;29;20050;-83
2022/11/01 09:56:09;;;;;;;25.90;3.60;;;15.10;99.90;;;;;;4916168;29;20040;-84
2022/11/01 09:59:00;;;;;;;13.68;2.92;;;15.10;99.90;;;;;;4914096;29;20078;-83
2022/11/01 10:01:42;;;;;;;13.45;2.55;;;15.10;99.90;;;;;;4901514;29;20038;-87
2022/11/01 10:04:14;;;;;;;26.95;3.83;;;15.20;99.90;;;;;;4927258;29;20044;-85
2022/11/01 10:06:49;;;;;;;14.32;2.40;;;15.20;99.90;;;;;;4892407;29;20050;-84
2022/11/01 10:09:42;;;;;;;21.42;2.92;;;15.30;99.90;;;;;;4914018;29;20052;-84
2022/11/01 10:12:46;;;;;;;15.98;3.38;;;15.40;99.90;;;;;;4912177;29;20086;-84
2022/11/01 10:15:41;;;;;;;21.80;3.80;;;15.50;99.90;;;;;;4905126;29;20070;-85
2022/11/01 10:18:17;;;;;;;13.65;2.38;;;15.40;99.90;;;;;;4889393;29;20052;-83
2022/11/01 10:20:43;;;;;;;22.90;2.75;;;15.60;99.90;;;;;;4903957;29;20118;-84
2022/11/01 10:23:14;;;;;;;26.30;2.90;;;15.60;99.90;;;;;;4895524;29;20033;-84
2022/11/01 10:25:47;;;;;;;19.98;2.83;;;15.50;99.90;;;;;;4910958;29;20051;-83
2022/11/01 10:28:47;;;;;;;21.15;2.92;;;15.50;99.90;;;;;;4897577;29;20047;-85
2022/11/01 10:31:19;;;;;;;28.05;2.95;;;15.60;99.90;;;;;;4850814;29;20049;-83
2022/11/01 10:33:57;;;;;;;21.75;3.60;;;15.60;99.90;;;;;;4896685;29;20071;-85
2022/11/01 10:36:32;;;;;;;20.75;3.28;;;16.00;99.90;;;;;;4902473;29;20379;-88
2022/11/01 10:39:23;;;;;;;;;;;15.80;99.90;;;;;;4899147;29;20044;-84
2022/11/01 10:41:52;;;;;;;21.25;3.17;;;15.70;99.90;;;;;;4902224;29;19925;-83
2022/11/01 10:44:31;;;;;;;13.50;2.88;;;15.70;99.90;;;;;;4912989;29;20134;-83
2022/11/01 10:47:01;;;;;;;17.65;2.85;;;15.60;99.90;;;;;;4913742;29;20040;-83
2022/11/01 10:49:38;;;;;;;17.95;2.60;;;15.60;99.90;;;;;;4898504;29;20039;-83
2022/11/01 10:52:08;;;;;;;25.00;3.40;;;15.50;99.90;;;;;;4912593;29;20334;-84
2022/11/01 10:54:38;;;;;;;20.23;3.45;;;15.50;99.90;;;;;;4916128;29;20040;-86
2022/11/01 10:57:09;;;;;;;32.35;3.10;;;15.40;99.90;;;;;;4908366;29;20040;-83
2022/11/01 10:59:43;;;;;;;12.45;2.17;;;15.40;99.90;;;;;;4903519;29;20126;-83
2022/11/01 11:02:34;;;;;;;22.10;2.45;;;15.40;99.90;;;;;;4901113;29;20054;-84
2022/11/01 11:05:00;;;;;;;18.27;2.88;;;15.40;99.90;;;;;;4893680;29;20114;-83
2022/11/01 11:07:29;;;;;;;11.73;2.13;;;15.40;99.90;;;;;;4915213;29;20124;-83
2022/11/01 11:09:55;;;;;;;23.15;3.47;;;15.30;99.90;;;;;;4898659;29;20407;-83
2022/11/01 11:12:22;;;;;;;33.67;3.85;;;15.40;99.90;;;;;;4896712;29;20040;-86
2022/11/01 11:14:57;;;;;;;17.77;2.78;;;15.50;99.90;;;;;;4911571;29;20123;-83
2022/11/01 11:17:28;;;;;;;13.73;2.53;;;15.60;99.90;;;;;;4900032;29;20392;-86
2022/11/01 11:19:59;;;;;;;16.27;2.83;;;15.90;99.90;;;;;;4889373;29;20039;-83
2022/11/01 11:22:25;;;;;;;13.60;3.20;;;16.00;99.90;;;;;;4894698;29;20102;-85
2022/11/01 11:24:56;;;;;;;19.67;2.72;;;16.10;99.90;;;;;;4897912;29;20103;-83
2022/11/01 11:27:26;;;;;;;14.40;2.65;;;16.30;99.90;;;;;;4914856;29;20051;-83
2022/11/01 11:30:00;;;;;;;19.88;3.15;;;16.30;99.90;;;;;;4902219;29;20051;-83
2022/11/01 11:32:29;;;;;;;15.85;2.92;;;16.20;99.90;;;;;;4929259;29;20643;-83
2022/11/01 11:35:03;;;;;;;29.63;3.10;;;16.30;99.90;;;;;;4880926;29;20036;-83
2022/11/01 11:37:32;;;;;;;12.60;2.50;;;16.50;99.90;;;;;;4904795;29;20055;-83
2022/11/01 11:40:03;;;;;;;10.90;2.20;;;17.00;99.90;;;;;;4898412;29;20044;-83
2022/11/01 11:42:29;;;;;;;11.93;2.35;;;16.80;99.90;;;;;;4910142;29;20052;-83
2022/11/01 11:45:18;;;;;;;14.90;2.40;;;17.00;99.90;;;;;;4899771;29;20099;-84
2022/11/01 11:47:45;;;;;;;21.38;2.55;;;17.10;99.90;;;;;;4909182;29;20048;-82
2022/11/01 11:50:32;;;;;;;16.65;2.65;;;17.10;99.90;;;;;;4912879;29;20112;-83
2022/11/01 11:53:01;;;;;;;13.75;3.05;;;17.00;99.90;;;;;;4898934;29;20091;-86
2022/11/01 11:55:31;;;;;;;15.30;2.20;;;16.90;99.90;;;;;;4927813;29;20039;-85
2022/11/01 11:57:57;;;;;;;11.05;1.92;;;17.00;99.90;;;;;;4912760;29;20044;-83
2022/11/01 12:00:28;;;;;;;13.88;3.13;;;17.00;99.90;;;;;;4896280;29;20436;-84
2022/11/01 12:02:54;;;;;;;13.38;2.25;;;17.00;99.90;;;;;;4910517;29;20067;-84
2022/11/01 12:05:22;;;;;;;10.10;2.22;;;17.10;99.90;;;;;;4912378;29;20094;-84
2022/11/01 12:07:55;;;;;;;13.75;2.08;;;17.00;99.90;;;;;;4911116;29;20533;-86
2022/11/01 12:10:45;;;;;;;12.10;2.13;;;17.10;99.90;;;;;;4911710;29;20076;-83
2022/11/01 12:13:35;;;;;;;15.85;2.25;;;17.10;99.90;;;;;;4912729;29;20046;-83
2022/11/01 12:16:23;;;;;;;16.60;1.95;;;17.20;99.90;;;;;;4896533;29;20035;-84
2022/11/01 12:18:59;;;;;;;49.17;6.80;;;17.10;99.90;;;;;;4913306;29;20094;-83
2022/11/01 12:21:27;;;;;;;8.18;2.08;;;17.10;99.90;;;;;;4901706;29;20035;-84
2022/11/01 12:24:01;;;;;;;9.95;2.00;;;17.10;99.90;;;;;;4910078;29;20128;-85
2022/11/01 12:26:29;;;;;;;13.35;1.80;;;17.10;99.90;;;;;;4897140;29;20036;-83
2022/11/01 12:29:12;;;;;;;11.82;2.95;;;17.10;99.90;;;;;;4913144;29;20055;-84
2022/11/01 12:31:41;;;;;;;19.20;2.55;;;17.10;99.90;;;;;;4894058;29;22407;-85
2022/11/01 12:34:19;;;;;;;16.65;1.92;;;17.00;99.90;;;;;;4899950;29;20043;-82
2022/11/01 12:37:23;;;;;;;14.43;2.42;;;17.00;99.90;;;;;;4896579;29;20395;-83
2022/11/01 12:40:03;;;;;;;14.57;2.63;;;17.00;99.90;;;;;;4896058;29;20075;-84
2022/11/01 12:42:39;;;;;;;10.73;2.58;;;16.80;99.90;;;;;;4913570;29;20039;-83
2022/11/01 12:45:24;;;;;;;15.73;2.33;;;16.90;99.90;;;;;;4893767;29;20038;-84
2022/11/01 12:47:57;;;;;;;13.77;1.83;;;16.90;99.90;;;;;;4908997;29;20112;-83
2022/11/01 12:50:44;;;;;;;10.10;2.10;;;16.80;99.90;;;;;;4889671;29;20041;-84
2022/11/01 12:53:25;;;;;;;15.13;2.45;;;16.80;99.90;;;;;;4911236;29;20047;-83
2022/11/01 12:55:52;;;;;;;10.30;1.48;;;16.80;99.90;;;;;;4898721;29;20043;-83
2022/11/01 12:58:20;;;;;;;19.70;2.70;;;16.80;99.90;;;;;;4895421;29;20043;-86
2022/11/01 13:01:14;;;;;;;25.83;3.03;;;16.90;99.90;;;;;;4889223;29;20099;-85
2022/11/01 13:04:09;;;;;;;14.50;2.15;;;16.80;99.90;;;;;;4911715;29;20501;-85
2022/11/01 13:07:01;;;;;;;17.00;1.90;;;16.80;99.90;;;;;;4908891;29;20146;-83
2022/11/01 13:09:44;;;;;;;12.60;3.20;;;16.80;99.90;;;;;;4907677;29;20043;-84
2022/11/01 13:12:21;;;;;;;9.05;1.70;;;16.80;99.90;;;;;;4896002;29;22008;-84
2022/11/01 13:15:41;;;;;;;12.65;2.38;;;16.70;99.90;;;;;;4896489;29;20102;-84